Terminal Aerodrome Forecast
Issued by NWS Quad Cities IA IL

Home | Current Version | Previous Version | Text Only | Print | Product List | Glossary On
Versions: 1 2 3 4 5 6 7 8 9 10 11 12 13 14 15 16 17 18 19
279
FTUS43 KDVN 231123
TAFMLI
TAF
KMLI 231123Z 2312/2412 08004KT P6SM SCT060
     FM231400 12005KT P6SM BKN080
     FM231800 13007KT P6SM FEW040 SCT120=

USA.gov is the U.S. government's official web portal to all federal, state and local government web resources and services.